createdAt,value
2022-09-18T00:00:13.149Z,78.06
2022-09-18T00:02:45.211Z,78.19
2022-09-18T00:05:17.190Z,78.37
2022-09-18T00:07:49.226Z,78.53
2022-09-18T00:10:21.203Z,78.56
2022-09-18T00:12:53.468Z,78.63
2022-09-18T00:15:25.651Z,78.66
2022-09-18T00:17:57.623Z,78.52
2022-09-18T00:20:29.779Z,78.56
2022-09-18T00:23:01.909Z,78.40
2022-09-18T00:25:33.913Z,78.23
2022-09-18T00:28:07.482Z,78.21
2022-09-18T00:30:39.897Z,78.20
2022-09-18T00:33:12.086Z,78.25
2022-09-18T00:35:47.588Z,78.23
2022-09-18T00:38:19.803Z,78.15
2022-09-18T00:40:51.990Z,78.21
2022-09-18T00:43:26.825Z,78.21
2022-09-18T00:46:04.631Z,78.24
2022-09-18T00:49:04.010Z,78.30
2022-09-18T00:51:38.263Z,78.39
2022-09-18T00:54:28.086Z,78.48
2022-09-18T00:57:03.313Z,78.55
2022-09-18T00:59:37.600Z,78.71
2022-09-18T01:02:09.706Z,78.93
2022-09-18T01:04:42.751Z,79.17
2022-09-18T01:07:37.007Z,79.30
2022-09-18T01:10:24.149Z,79.47
2022-09-18T01:13:05.144Z,79.58
2022-09-18T01:15:46.096Z,79.96
2022-09-18T01:18:39.427Z,80.13
2022-09-18T01:21:14.902Z,80.51
2022-09-18T01:24:23.246Z,80.76
2022-09-18T01:27:06.887Z,81.00
2022-09-18T01:29:41.864Z,81.16
2022-09-18T01:32:29.029Z,81.35
2022-09-18T01:35:40.000Z,81.55
2022-09-18T01:37:58.593Z,81.66
2022-09-18T01:40:36.844Z,81.85
2022-09-18T01:43:11.820Z,81.97
2022-09-18T01:45:46.922Z,82.08
2022-09-18T01:48:29.760Z,82.18
2022-09-18T01:51:14.702Z,82.44
2022-09-18T01:53:49.703Z,82.68
2022-09-18T01:56:31.201Z,82.73
2022-09-18T01:59:06.970Z,82.93
2022-09-18T02:01:43.686Z,83.22
2022-09-18T02:04:21.706Z,83.53
2022-09-18T02:06:57.623Z,83.76
2022-09-18T02:09:31.274Z,83.81
2022-09-18T02:12:05.144Z,83.98
2022-09-18T02:14:40.660Z,84.16
2022-09-18T02:17:32.052Z,84.31
2022-09-18T02:20:08.941Z,84.29
2022-09-18T02:22:45.616Z,84.43
2022-09-18T02:25:20.884Z,84.57
2022-09-18T02:27:55.383Z,84.61
2022-09-18T02:30:28.030Z,84.68
2022-09-18T02:32:59.835Z,84.45
2022-09-18T02:35:35.037Z,84.23
2022-09-18T02:38:10.224Z,84.46
2022-09-18T02:41:06.214Z,84.64
2022-09-18T02:43:46.958Z,84.93
2022-09-18T02:46:25.651Z,84.91
2022-09-18T02:49:17.313Z,84.97
2022-09-18T02:51:53.876Z,85.03
2022-09-18T02:54:43.573Z,85.06
2022-09-18T02:57:21.399Z,85.21
2022-09-18T02:59:56.744Z,85.26
2022-09-18T03:02:30.601Z,85.31
2022-09-18T03:05:04.090Z,85.46
2022-09-18T03:07:38.356Z,85.63
2022-09-18T03:10:11.982Z,85.57
2022-09-18T03:12:44.658Z,85.46
2022-09-18T03:15:16.840Z,85.54
2022-09-18T03:17:49.011Z,85.57
2022-09-18T03:20:21.380Z,85.72
2022-09-18T03:22:53.962Z,85.80
2022-09-18T03:25:26.308Z,85.79
2022-09-18T03:27:58.452Z,86.03
2022-09-18T03:30:32.719Z,85.98
2022-09-18T03:33:06.156Z,86.12
2022-09-18T03:35:38.716Z,86.20
2022-09-18T03:38:11.653Z,86.36
2022-09-18T03:40:47.974Z,86.56
2022-09-18T03:43:20.971Z,86.67
2022-09-18T03:45:54.355Z,86.64
2022-09-18T03:48:26.692Z,86.43
2022-09-18T03:50:58.899Z,86.37
2022-09-18T03:53:31.031Z,86.42
2022-09-18T03:56:20.556Z,86.39
2022-09-18T03:58:57.225Z,86.46
2022-09-18T04:01:31.060Z,86.52
2022-09-18T04:04:20.408Z,86.30
2022-09-18T04:07:10.441Z,85.94
2022-09-18T04:09:59.797Z,85.50
2022-09-18T04:12:32.286Z,84.90
2022-09-18T04:15:11.828Z,84.10
2022-09-18T04:17:43.910Z,83.43
2022-09-18T04:20:16.111Z,82.97
2022-09-18T04:22:48.378Z,82.42
2022-09-18T04:25:20.518Z,81.78
2022-09-18T04:27:52.548Z,81.00
2022-09-18T04:30:25.394Z,80.37
2022-09-18T04:32:57.868Z,79.77
2022-09-18T04:35:31.397Z,79.09
2022-09-18T04:38:03.381Z,78.45
2022-09-18T04:40:35.639Z,77.96
2022-09-18T04:43:09.317Z,77.34
2022-09-18T04:45:43.549Z,76.66
2022-09-18T04:48:18.353Z,75.84
2022-09-18T04:50:51.404Z,75.28
2022-09-18T04:53:23.512Z,74.45
2022-09-18T04:55:55.877Z,73.46
2022-09-18T04:58:27.863Z,72.85
2022-09-18T05:01:01.775Z,72.42
2022-09-18T05:03:34.684Z,72.00
2022-09-18T05:06:07.056Z,70.23
2022-09-18T05:08:40.483Z,66.63
2022-09-18T05:11:12.665Z,62.50
2022-09-18T05:13:47.247Z,60.91
2022-09-18T05:16:19.963Z,60.91
2022-09-18T05:18:54.607Z,61.58
2022-09-18T05:21:27.489Z,62.27
2022-09-18T05:23:59.820Z,61.29
2022-09-18T05:26:32.033Z,59.64
2022-09-18T05:29:04.318Z,59.12
2022-09-18T05:31:36.898Z,59.62
2022-09-18T05:34:09.092Z,59.90
2022-09-18T05:36:41.339Z,59.05
2022-09-18T05:39:17.428Z,59.05
2022-09-18T05:41:51.604Z,56.88
2022-09-18T05:44:23.653Z,55.12
2022-09-18T05:46:56.594Z,54.27
2022-09-18T05:49:28.817Z,54.69
2022-09-18T05:52:01.297Z,55.32
2022-09-18T05:54:35.228Z,55.35
2022-09-18T05:57:07.444Z,55.96
2022-09-18T05:59:39.445Z,56.50
2022-09-18T06:02:13.122Z,55.28
2022-09-18T06:04:49.810Z,54.11
2022-09-18T06:07:22.064Z,52.78
2022-09-18T06:09:55.308Z,50.93
2022-09-18T06:12:27.831Z,48.97
2022-09-18T06:14:59.858Z,46.66
2022-09-18T06:17:33.123Z,45.87
2022-09-18T06:20:08.791Z,45.54
2022-09-18T06:22:40.187Z,46.61
2022-09-18T06:25:12.691Z,50.40
2022-09-18T06:27:44.849Z,49.69
2022-09-18T06:30:17.308Z,50.99
2022-09-18T06:32:49.547Z,50.93
2022-09-18T06:35:22.501Z,47.53
2022-09-18T06:37:54.851Z,43.99
2022-09-18T06:40:29.069Z,41.71
2022-09-18T06:43:11.882Z,40.32
2022-09-18T06:45:56.083Z,39.76
2022-09-18T06:48:29.609Z,40.12
2022-09-18T06:51:02.745Z,41.03
2022-09-18T06:53:36.518Z,41.65
2022-09-18T06:56:09.130Z,42.76
2022-09-18T06:58:41.170Z,43.37
2022-09-18T07:01:13.734Z,44.77
2022-09-18T07:03:52.244Z,45.69
2022-09-18T07:06:29.298Z,46.96
2022-09-18T07:09:02.802Z,48.35
2022-09-18T07:11:36.766Z,49.56
2022-09-18T07:14:09.436Z,50.32
2022-09-18T07:16:42.117Z,51.61
2022-09-18T07:19:15.860Z,52.50
2022-09-18T07:21:47.876Z,52.54
2022-09-18T07:24:20.154Z,53.14
2022-09-18T07:26:52.434Z,53.32
2022-09-18T07:29:24.789Z,53.64
2022-09-18T07:31:57.367Z,53.77
2022-09-18T07:34:30.173Z,54.76
2022-09-18T07:37:03.680Z,55.77
2022-09-18T07:39:36.414Z,56.06
2022-09-18T07:42:28.921Z,56.58
2022-09-18T07:45:01.299Z,56.87
2022-09-18T07:47:33.966Z,57.49
2022-09-18T07:50:06.531Z,57.48
2022-09-18T07:52:38.684Z,57.13
2022-09-18T07:55:12.281Z,56.93
2022-09-18T07:57:46.662Z,55.40
2022-09-18T08:00:28.853Z,54.34
2022-09-18T08:03:07.609Z,52.92
2022-09-18T08:05:42.355Z,53.17
2022-09-18T08:08:16.636Z,50.69
2022-09-18T08:10:59.391Z,50.15
2022-09-18T08:13:45.191Z,50.33
2022-09-18T08:16:28.237Z,51.50
2022-09-18T08:19:17.712Z,52.47
2022-09-18T08:21:51.827Z,51.93
2022-09-18T08:24:24.397Z,51.14
2022-09-18T08:26:58.536Z,51.19
2022-09-18T08:29:34.262Z,50.69
2022-09-18T08:32:09.930Z,50.31
2022-09-18T08:34:42.375Z,49.53
2022-09-18T08:37:16.250Z,48.60
2022-09-18T08:39:50.187Z,48.38
2022-09-18T08:42:26.694Z,47.01
2022-09-18T08:45:08.368Z,46.51
2022-09-18T08:47:47.700Z,46.44
2022-09-18T08:50:32.873Z,46.33
2022-09-18T08:53:09.840Z,46.47
2022-09-18T08:55:47.621Z,46.18
2022-09-18T08:58:32.994Z,46.18
2022-09-18T09:01:20.151Z,46.10
2022-09-18T09:03:59.742Z,46.38
2022-09-18T09:06:39.192Z,46.94
2022-09-18T09:09:31.041Z,46.80
2022-09-18T09:12:11.458Z,46.83
2022-09-18T09:14:57.157Z,46.06
2022-09-18T09:17:42.657Z,45.92
2022-09-18T09:20:35.701Z,45.93
2022-09-18T09:23:20.966Z,45.35
2022-09-18T09:26:09.525Z,44.96
2022-09-18T09:29:08.446Z,45.26
2022-09-18T09:32:01.756Z,44.52
2022-09-18T09:34:53.619Z,44.55
2022-09-18T09:37:33.865Z,43.84
2022-09-18T09:40:09.989Z,44.04
2022-09-18T09:42:45.284Z,44.09
2022-09-18T09:45:25.050Z,43.86
2022-09-18T09:48:27.912Z,44.86
2022-09-18T09:51:23.966Z,45.81
2022-09-18T09:53:57.569Z,46.44
2022-09-18T09:56:48.159Z,46.31
2022-09-18T09:59:36.630Z,45.97
2022-09-18T10:02:40.428Z,46.21
2022-09-18T10:05:19.221Z,46.87
2022-09-18T10:07:58.185Z,47.32
2022-09-18T10:10:42.584Z,47.66
2022-09-18T10:13:21.126Z,47.74
2022-09-18T10:15:56.671Z,48.37
2022-09-18T10:18:32.308Z,48.94
2022-09-18T10:21:10.158Z,49.13
2022-09-18T10:23:46.124Z,49.03
2022-09-18T10:26:24.249Z,49.49
2022-09-18T10:28:56.751Z,50.27
2022-09-18T10:31:49.489Z,50.88
2022-09-18T10:34:37.212Z,51.25
2022-09-18T10:37:31.841Z,51.71
2022-09-18T10:40:07.003Z,52.22
2022-09-18T10:42:39.349Z,51.32
2022-09-18T10:45:30.448Z,52.23
2022-09-18T10:48:27.873Z,52.42
2022-09-18T10:51:03.375Z,52.82
2022-09-18T10:53:39.691Z,53.33
2022-09-18T10:56:20.344Z,53.59
2022-09-18T10:58:54.295Z,53.95
2022-09-18T11:01:27.183Z,54.57
2022-09-18T11:04:05.643Z,54.99
2022-09-18T11:06:41.092Z,55.40
2022-09-18T11:09:23.721Z,56.14
2022-09-18T11:11:56.782Z,56.71
2022-09-18T11:14:33.486Z,57.20
2022-09-18T11:17:08.355Z,56.93
2022-09-18T11:19:42.082Z,56.88
2022-09-18T11:22:43.203Z,58.01
2022-09-18T11:25:22.635Z,60.12
2022-09-18T11:27:58.895Z,61.80
2022-09-18T11:30:35.696Z,62.15
2022-09-18T11:33:18.803Z,60.62
2022-09-18T11:35:54.764Z,62.10
2022-09-18T11:38:29.900Z,62.62
2022-09-18T11:41:03.318Z,63.09
2022-09-18T11:43:39.397Z,64.58
2022-09-18T11:46:23.680Z,64.42
2022-09-18T11:49:08.037Z,65.28
2022-09-18T11:51:53.704Z,65.52
2022-09-18T11:54:34.946Z,63.03
2022-09-18T11:57:13.570Z,65.96
2022-09-18T11:59:51.671Z,67.18
2022-09-18T12:02:32.720Z,67.62
2022-09-18T12:05:08.096Z,67.55
2022-09-18T12:07:58.750Z,67.48
2022-09-18T12:10:51.829Z,68.22
2022-09-18T12:13:47.158Z,68.35
2022-09-18T12:16:40.172Z,68.63
2022-09-18T12:19:29.007Z,68.83
2022-09-18T12:22:13.112Z,69.20
2022-09-18T12:24:45.200Z,69.58
2022-09-18T12:27:30.217Z,69.00
2022-09-18T12:30:17.544Z,70.25
2022-09-18T12:33:07.828Z,70.13
2022-09-18T12:35:51.861Z,69.77
2022-09-18T12:39:00.419Z,69.98
2022-09-18T12:41:35.648Z,69.55
2022-09-18T12:44:28.637Z,70.46
2022-09-18T12:47:24.732Z,70.66
2022-09-18T12:50:15.122Z,70.87
2022-09-18T12:53:08.535Z,71.37
2022-09-18T12:55:47.975Z,71.93
2022-09-18T12:58:56.665Z,73.15
2022-09-18T13:01:37.992Z,73.52
2022-09-18T13:04:29.397Z,72.99
2022-09-18T13:07:10.789Z,74.27
2022-09-18T13:09:49.092Z,74.18
2022-09-18T13:12:30.010Z,75.00
2022-09-18T13:15:14.024Z,75.34
2022-09-18T13:18:01.937Z,76.11
2022-09-18T13:20:37.120Z,75.82
2022-09-18T13:23:22.121Z,77.00
2022-09-18T13:25:54.534Z,77.00
2022-09-18T13:28:28.878Z,75.18
2022-09-18T13:31:31.347Z,76.66
2022-09-18T13:34:08.952Z,76.86
2022-09-18T13:36:43.908Z,77.59
2022-09-18T13:39:22.350Z,78.23
2022-09-18T13:41:56.678Z,78.74
2022-09-18T13:44:29.834Z,78.74
2022-09-18T13:47:16.782Z,77.43
2022-09-18T13:50:01.566Z,78.72
2022-09-18T13:52:36.587Z,78.78
2022-09-18T13:55:18.263Z,79.09
2022-09-18T13:57:52.056Z,79.09
2022-09-18T14:00:28.725Z,80.12
2022-09-18T14:03:13.645Z,80.19
2022-09-18T14:05:46.747Z,80.07
2022-09-18T14:08:24.700Z,79.91
2022-09-18T14:11:15.698Z,80.61
2022-09-18T14:13:51.660Z,80.79
2022-09-18T14:16:30.261Z,81.01
2022-09-18T14:19:06.202Z,80.68
2022-09-18T14:21:44.777Z,80.90
2022-09-18T14:24:25.871Z,80.93
2022-09-18T14:27:04.234Z,81.26
2022-09-18T14:29:37.115Z,81.38
2022-09-18T14:32:15.693Z,81.35
2022-09-18T14:34:48.666Z,81.20
2022-09-18T14:37:33.407Z,81.42
2022-09-18T14:40:06.250Z,81.86
2022-09-18T14:42:41.034Z,80.81
2022-09-18T14:45:16.649Z,81.41
2022-09-18T14:47:50.971Z,82.18
2022-09-18T14:50:32.101Z,82.18
2022-09-18T14:53:21.687Z,82.00
2022-09-18T14:55:59.640Z,82.70
2022-09-18T14:58:37.632Z,82.96
2022-09-18T15:01:12.651Z,83.08
2022-09-18T15:03:47.498Z,83.51
2022-09-18T15:06:32.290Z,83.33
2022-09-18T15:09:05.353Z,83.66
2022-09-18T15:11:52.472Z,83.32
2022-09-18T15:14:20.724Z,83.58
2022-09-18T15:16:58.541Z,84.53
2022-09-18T15:19:32.496Z,84.70
2022-09-18T15:22:04.618Z,84.74
2022-09-18T15:24:37.023Z,84.31
2022-09-18T15:27:09.802Z,84.15
2022-09-18T15:29:47.440Z,84.15
2022-09-18T15:32:24.929Z,83.67
2022-09-18T15:34:58.672Z,83.99
2022-09-18T15:37:32.334Z,84.66
2022-09-18T15:40:08.010Z,84.71
2022-09-18T15:42:44.043Z,84.20
2022-09-18T15:45:22.636Z,84.20
2022-09-18T15:47:55.833Z,84.20
2022-09-18T15:50:34.702Z,84.40
2022-09-18T15:53:18.849Z,84.40
2022-09-18T15:55:56.397Z,84.61
2022-09-18T15:58:34.357Z,84.73
2022-09-18T16:01:09.327Z,84.76
2022-09-18T16:03:42.171Z,84.97
2022-09-18T16:06:23.027Z,84.97
2022-09-18T16:08:57.297Z,85.20
2022-09-18T16:11:41.046Z,85.06
2022-09-18T16:14:44.392Z,85.29
2022-09-18T16:17:36.724Z,85.54
2022-09-18T16:20:42.440Z,85.33
2022-09-18T16:23:24.335Z,85.22
2022-09-18T16:26:06.093Z,84.95
2022-09-18T16:28:46.758Z,85.04
2022-09-18T16:31:21.366Z,85.16
2022-09-18T16:34:02.065Z,85.16
2022-09-18T16:36:38.409Z,85.91
2022-09-18T16:39:13.092Z,85.91
2022-09-18T16:41:45.681Z,85.92
2022-09-18T16:44:18.906Z,85.75
2022-09-18T16:46:53.891Z,85.39
2022-09-18T16:49:30.777Z,85.39
2022-09-18T16:52:03.177Z,85.75
2022-09-18T16:54:35.879Z,85.79
2022-09-18T16:57:13.339Z,85.99
2022-09-18T16:59:46.175Z,85.99
2022-09-18T17:02:25.378Z,85.73
2022-09-18T17:04:55.002Z,85.82
2022-09-18T17:07:26.992Z,86.51
2022-09-18T17:09:59.652Z,86.51
2022-09-18T17:12:32.971Z,86.82
2022-09-18T17:15:05.650Z,86.26
2022-09-18T17:17:38.157Z,86.32
2022-09-18T17:20:10.732Z,86.08
2022-09-18T17:22:42.673Z,86.16
2022-09-18T17:25:15.790Z,86.41
2022-09-18T17:27:49.624Z,86.50
2022-09-18T17:30:21.680Z,86.50
2022-09-18T17:32:53.914Z,85.93
2022-09-18T17:35:26.620Z,85.68
2022-09-18T17:37:58.676Z,86.18
2022-09-18T17:40:30.664Z,86.34
2022-09-18T17:43:02.527Z,86.34
2022-09-18T17:45:34.978Z,86.59
2022-09-18T17:48:06.909Z,86.62
2022-09-18T17:50:38.871Z,86.71
2022-09-18T17:53:11.047Z,86.97
2022-09-18T17:55:44.611Z,86.88
2022-09-18T17:58:16.742Z,87.03
2022-09-18T18:00:48.929Z,87.17
2022-09-18T18:03:21.237Z,87.02
2022-09-18T18:05:54.806Z,87.07
2022-09-18T18:08:30.765Z,87.18
2022-09-18T18:11:08.738Z,87.12
2022-09-18T18:13:42.298Z,87.12
2022-09-18T18:16:17.947Z,86.92
2022-09-18T18:18:50.823Z,87.53
2022-09-18T18:21:23.832Z,87.53
2022-09-18T18:23:57.658Z,87.55
2022-09-18T18:26:29.989Z,87.25
2022-09-18T18:29:03.746Z,87.13
2022-09-18T18:31:36.386Z,87.22
2022-09-18T18:34:10.570Z,86.80
2022-09-18T18:36:43.552Z,86.97
2022-09-18T18:39:16.235Z,87.01
2022-09-18T18:41:50.534Z,86.40
2022-09-18T18:44:23.381Z,86.33
2022-09-18T18:46:56.121Z,86.63
2022-09-18T18:49:28.304Z,86.48
2022-09-18T18:52:02.761Z,85.73
2022-09-18T18:54:35.006Z,85.73
2022-09-18T18:57:11.787Z,86.28
2022-09-18T18:59:45.250Z,86.28
2022-09-18T19:02:17.594Z,86.57
2022-09-18T19:04:50.840Z,86.72
2022-09-18T19:07:24.065Z,86.58
2022-09-18T19:09:58.081Z,86.53
2022-09-18T19:12:32.677Z,86.67
2022-09-18T19:15:06.409Z,86.92
2022-09-18T19:17:41.386Z,86.62
2022-09-18T19:20:14.510Z,86.21
2022-09-18T19:22:56.736Z,86.45
2022-09-18T19:25:30.562Z,86.48
2022-09-18T19:28:02.735Z,86.48
2022-09-18T19:30:40.277Z,86.13
2022-09-18T19:33:17.338Z,86.20
2022-09-18T19:35:50.885Z,85.77
2022-09-18T19:38:23.199Z,86.04
2022-09-18T19:40:56.230Z,86.25
2022-09-18T19:43:31.762Z,86.45
2022-09-18T19:46:05.460Z,86.41
2022-09-18T19:48:38.177Z,86.41
2022-09-18T19:51:10.512Z,86.96
2022-09-18T19:53:42.848Z,86.96
2022-09-18T19:56:33.126Z,86.91
2022-09-18T19:58:53.038Z,86.89
2022-09-18T20:01:25.047Z,87.01
2022-09-18T20:03:58.837Z,87.19
2022-09-18T20:06:33.109Z,87.19
2022-09-18T20:09:05.576Z,86.69
2022-09-18T20:11:37.769Z,86.70
2022-09-18T20:14:09.703Z,86.35
2022-09-18T20:16:41.692Z,86.12
2022-09-18T20:19:13.944Z,87.02
2022-09-18T20:21:45.946Z,87.13
2022-09-18T20:24:20.114Z,87.13
2022-09-18T20:26:52.118Z,87.48
2022-09-18T20:29:24.462Z,87.79
2022-09-18T20:31:58.240Z,88.38
2022-09-18T20:34:30.366Z,88.79
2022-09-18T20:37:03.659Z,89.16
2022-09-18T20:39:35.947Z,89.10
2022-09-18T20:42:08.138Z,89.42
2022-09-18T20:44:42.183Z,89.56
2022-09-18T20:47:14.268Z,89.56
2022-09-18T20:49:46.271Z,89.50
2022-09-18T20:52:18.748Z,89.65
2022-09-18T20:54:53.057Z,89.67
2022-09-18T20:57:25.742Z,89.82
2022-09-18T20:59:58.118Z,89.66
2022-09-18T21:02:32.300Z,89.71
2022-09-18T21:05:12.713Z,89.83
2022-09-18T21:07:45.076Z,89.75
2022-09-18T21:10:18.315Z,89.69
2022-09-18T21:12:50.620Z,89.88
2022-09-18T21:15:22.660Z,89.84
2022-09-18T21:17:54.977Z,89.37
2022-09-18T21:20:29.812Z,89.60
2022-09-18T21:23:19.324Z,89.60
2022-09-18T21:25:51.898Z,89.67
2022-09-18T21:28:24.791Z,89.60
2022-09-18T21:30:59.565Z,89.94
2022-09-18T21:33:35.622Z,90.17
2022-09-18T21:36:11.207Z,89.97
2022-09-18T21:38:45.203Z,89.89
2022-09-18T21:41:18.724Z,90.18
2022-09-18T21:43:51.599Z,90.20
2022-09-18T21:46:25.404Z,90.30
2022-09-18T21:48:57.524Z,90.09
2022-09-18T21:51:30.119Z,90.41
2022-09-18T21:54:05.733Z,90.41
2022-09-18T21:56:38.254Z,90.48
2022-09-18T21:59:12.914Z,90.69
2022-09-18T22:01:47.004Z,90.77
2022-09-18T22:04:20.934Z,90.68
2022-09-18T22:06:54.123Z,90.36
2022-09-18T22:09:29.230Z,89.90
2022-09-18T22:12:02.211Z,90.30
2022-09-18T22:14:36.022Z,90.45
2022-09-18T22:17:09.861Z,90.54
2022-09-18T22:19:42.583Z,90.68
2022-09-18T22:22:15.259Z,90.49
2022-09-18T22:24:48.278Z,90.49
2022-09-18T22:27:20.810Z,90.70
2022-09-18T22:29:52.950Z,90.86
2022-09-18T22:32:25.259Z,90.82
2022-09-18T22:34:57.533Z,90.82
2022-09-18T22:37:29.604Z,91.03
2022-09-18T22:40:02.745Z,90.85
2022-09-18T22:42:34.576Z,90.72
2022-09-18T22:45:08.606Z,90.72
2022-09-18T22:47:41.137Z,90.83
2022-09-18T22:50:13.662Z,90.62
2022-09-18T22:52:46.112Z,90.75
2022-09-18T22:55:18.484Z,90.59
2022-09-18T22:57:50.985Z,90.77
2022-09-18T23:00:23.644Z,90.77
2022-09-18T23:02:56.289Z,90.64
2022-09-18T23:05:29.764Z,90.84
2022-09-18T23:08:03.663Z,90.49
2022-09-18T23:10:36.581Z,90.58
2022-09-18T23:13:09.787Z,89.83
2022-09-18T23:15:41.932Z,90.14
2022-09-18T23:18:15.468Z,89.56
2022-09-18T23:20:47.615Z,89.43
2022-09-18T23:23:22.191Z,89.61
2022-09-18T23:25:54.741Z,89.98
2022-09-18T23:28:29.717Z,89.46
2022-09-18T23:31:13.080Z,89.56
2022-09-18T23:33:48.537Z,89.59
2022-09-18T23:36:26.036Z,89.26
2022-09-18T23:39:03.687Z,89.24
2022-09-18T23:41:38.000Z,89.05
2022-09-18T23:44:13.694Z,89.00
2022-09-18T23:46:47.371Z,88.86
2022-09-18T23:49:23.955Z,89.14
2022-09-18T23:51:56.857Z,88.31
2022-09-18T23:54:31.366Z,88.75
2022-09-18T23:57:02.771Z,88.18
2022-09-18T23:59:34.717Z,88.69
